createdAt,value
2019-05-20T00:01:10.444Z,63.52
2019-05-20T00:03:41.295Z,63.65
2019-05-20T00:06:12.219Z,64.11
2019-05-20T00:08:42.893Z,64.49
2019-05-20T00:11:13.576Z,64.44
2019-05-20T00:13:44.350Z,64.24
2019-05-20T00:16:15.364Z,64.11
2019-05-20T00:18:46.414Z,63.96
2019-05-20T00:21:18.184Z,64.04
2019-05-20T00:23:48.849Z,63.82
2019-05-20T00:26:19.837Z,63.86
2019-05-20T00:28:50.514Z,63.94
2019-05-20T00:31:21.271Z,63.72
2019-05-20T00:33:52.345Z,64.15
2019-05-20T00:36:23.147Z,64.03
2019-05-20T00:39:11.750Z,64.29
2019-05-20T00:41:43.169Z,64.45
2019-05-20T00:44:13.872Z,64.74
2019-05-20T00:46:45.598Z,64.72
2019-05-20T00:49:16.577Z,65.01
2019-05-20T00:51:47.326Z,64.62
2019-05-20T00:54:18.514Z,64.39
2019-05-20T00:56:53.128Z,64.29
2019-05-20T00:59:23.828Z,64.20
2019-05-20T01:01:55.780Z,64.53
2019-05-20T01:04:26.844Z,64.84
2019-05-20T01:06:57.851Z,64.89
2019-05-20T01:09:28.918Z,64.76
2019-05-20T01:11:59.652Z,64.59
2019-05-20T01:14:30.367Z,64.71
2019-05-20T01:17:01.069Z,64.60
2019-05-20T01:19:32.162Z,64.84
2019-05-20T01:22:02.817Z,64.96
2019-05-20T01:24:33.502Z,64.71
2019-05-20T01:27:05.156Z,65.14
2019-05-20T01:29:36.306Z,65.01
2019-05-20T01:32:07.266Z,65.26
2019-05-20T01:34:38.379Z,65.54
2019-05-20T01:37:09.456Z,65.86
2019-05-20T01:39:40.211Z,65.92
2019-05-20T01:42:11.208Z,65.85
2019-05-20T01:44:42.261Z,66.17
2019-05-20T01:47:13.566Z,66.07
2019-05-20T01:49:45.671Z,65.91
2019-05-20T01:52:16.423Z,65.90
2019-05-20T01:54:47.424Z,66.03
2019-05-20T01:57:18.105Z,66.46
2019-05-20T01:59:49.091Z,66.53
2019-05-20T02:02:19.784Z,66.59
2019-05-20T02:04:50.806Z,66.75
2019-05-20T02:07:21.539Z,67.22
2019-05-20T02:09:52.476Z,67.32
2019-05-20T02:12:23.228Z,67.45
2019-05-20T02:15:04.558Z,67.42
2019-05-20T02:17:35.603Z,67.10
2019-05-20T02:20:09.835Z,67.68
2019-05-20T02:22:40.533Z,67.97
2019-05-20T02:25:12.614Z,68.14
2019-05-20T02:27:43.265Z,68.43
2019-05-20T02:30:14.586Z,68.64
2019-05-20T02:32:45.268Z,68.92
2019-05-20T02:35:15.932Z,69.37
2019-05-20T02:37:46.607Z,70.10
2019-05-20T02:40:17.686Z,69.75
2019-05-20T02:42:48.401Z,69.75
2019-05-20T02:45:20.004Z,69.61
2019-05-20T02:47:50.711Z,69.59
2019-05-20T02:50:21.461Z,69.92
2019-05-20T02:52:52.154Z,70.00
2019-05-20T02:55:22.823Z,70.05
2019-05-20T02:57:53.870Z,69.92
2019-05-20T03:00:24.559Z,70.09
2019-05-20T03:02:55.415Z,70.71
2019-05-20T03:05:26.492Z,70.58
2019-05-20T03:07:57.521Z,70.76
2019-05-20T03:10:28.178Z,70.37
2019-05-20T03:12:59.211Z,70.52
2019-05-20T03:15:30.351Z,70.72
2019-05-20T03:18:01.126Z,70.27
2019-05-20T03:20:33.231Z,70.76
2019-05-20T03:23:04.269Z,70.97
2019-05-20T03:25:36.028Z,71.42
2019-05-20T03:28:06.730Z,72.48
2019-05-20T03:30:37.826Z,72.54
2019-05-20T03:33:08.950Z,72.56
2019-05-20T03:35:39.630Z,72.55
2019-05-20T03:38:10.410Z,72.52
2019-05-20T03:40:41.076Z,72.86
2019-05-20T03:43:11.768Z,72.22
2019-05-20T03:45:43.158Z,72.34
2019-05-20T03:48:14.206Z,72.46
2019-05-20T03:50:44.967Z,72.89
2019-05-20T03:53:15.644Z,72.38
2019-05-20T03:55:46.683Z,72.12
2019-05-20T03:58:17.377Z,72.08
2019-05-20T04:00:49.391Z,71.63
2019-05-20T04:03:20.049Z,71.08
2019-05-20T04:05:51.022Z,70.55
2019-05-20T04:08:21.698Z,70.52
2019-05-20T04:10:52.416Z,70.57
2019-05-20T04:13:23.410Z,69.77
2019-05-20T04:15:54.090Z,69.61
2019-05-20T04:18:24.830Z,69.07
2019-05-20T04:20:55.868Z,69.04
2019-05-20T04:23:27.040Z,68.59
2019-05-20T04:25:58.028Z,68.32
2019-05-20T04:28:29.127Z,67.65
2019-05-20T04:31:00.218Z,66.94
2019-05-20T04:33:30.920Z,67.39
2019-05-20T04:36:01.586Z,67.17
2019-05-20T04:38:32.302Z,67.32
2019-05-20T04:41:02.951Z,67.48
2019-05-20T04:43:33.993Z,67.27
2019-05-20T04:46:04.923Z,67.23
2019-05-20T04:48:35.623Z,67.21
2019-05-20T04:51:06.694Z,66.81
2019-05-20T04:53:37.381Z,66.15
2019-05-20T04:56:08.351Z,65.20
2019-05-20T04:58:39.031Z,64.59
2019-05-20T05:01:09.728Z,64.09
2019-05-20T05:03:41.109Z,63.95
2019-05-20T05:06:11.879Z,64.06
2019-05-20T05:08:42.841Z,64.32
2019-05-20T05:11:13.623Z,64.55
2019-05-20T05:13:44.613Z,64.38
2019-05-20T05:16:15.415Z,63.96
2019-05-20T05:18:46.494Z,63.27
2019-05-20T05:21:17.422Z,63.69
2019-05-20T05:23:58.729Z,64.06
2019-05-20T05:26:20.938Z,64.17
2019-05-20T05:28:51.784Z,64.36
2019-05-20T05:31:22.600Z,64.47
2019-05-20T05:33:54.442Z,64.44
2019-05-20T05:36:25.349Z,64.50
2019-05-20T05:38:56.361Z,64.29
2019-05-20T05:41:27.127Z,64.03
2019-05-20T05:43:58.115Z,64.23
2019-05-20T05:46:30.068Z,64.17
2019-05-20T05:49:01.719Z,63.25
2019-05-20T05:51:32.413Z,61.86
2019-05-20T05:54:03.405Z,60.53
2019-05-20T05:56:34.376Z,59.78
2019-05-20T05:59:05.320Z,58.26
2019-05-20T06:01:36.000Z,57.48
2019-05-20T06:04:06.977Z,55.17
2019-05-20T06:06:37.718Z,53.25
2019-05-20T06:09:09.046Z,53.26
2019-05-20T06:11:39.731Z,54.08
2019-05-20T06:14:10.429Z,55.45
2019-05-20T06:16:41.108Z,57.67
2019-05-20T06:19:11.803Z,57.94
2019-05-20T06:21:43.924Z,58.84
2019-05-20T06:24:15.115Z,58.92
2019-05-20T06:26:46.102Z,59.42
2019-05-20T06:29:17.774Z,59.03
2019-05-20T06:31:48.813Z,59.21
2019-05-20T06:34:19.710Z,59.33
2019-05-20T06:36:52.554Z,59.09
2019-05-20T06:39:23.609Z,59.71
2019-05-20T06:41:54.893Z,59.29
2019-05-20T06:44:25.958Z,57.76
2019-05-20T06:46:56.983Z,57.21
2019-05-20T06:49:28.033Z,56.67
2019-05-20T06:51:58.725Z,56.79
2019-05-20T06:54:29.425Z,56.94
2019-05-20T06:57:00.216Z,56.70
2019-05-20T06:59:30.878Z,56.87
2019-05-20T07:02:01.624Z,56.72
2019-05-20T07:04:32.716Z,56.73
2019-05-20T07:07:12.439Z,56.23
2019-05-20T07:09:35.781Z,55.63
2019-05-20T07:12:06.612Z,55.81
2019-05-20T07:14:37.319Z,54.84
2019-05-20T07:17:08.002Z,54.00
2019-05-20T07:19:38.700Z,54.30
2019-05-20T07:22:09.378Z,53.29
2019-05-20T07:24:40.102Z,53.06
2019-05-20T07:27:10.886Z,53.03
2019-05-20T07:29:41.910Z,52.85
2019-05-20T07:32:12.952Z,53.48
2019-05-20T07:34:43.987Z,52.82
2019-05-20T07:37:15.042Z,51.83
2019-05-20T07:39:46.075Z,51.25
2019-05-20T07:42:16.746Z,50.71
2019-05-20T07:44:47.753Z,49.93
2019-05-20T07:47:18.501Z,50.24
2019-05-20T07:49:51.089Z,50.96
2019-05-20T07:52:24.377Z,50.89
2019-05-20T07:54:58.083Z,50.90
2019-05-20T07:57:33.365Z,50.22
2019-05-20T08:00:06.005Z,50.46
2019-05-20T08:02:37.253Z,50.91
2019-05-20T08:05:10.050Z,51.43
2019-05-20T08:07:51.806Z,52.95
2019-05-20T08:10:13.948Z,52.40
2019-05-20T08:12:44.782Z,52.59
2019-05-20T08:15:17.437Z,52.34
2019-05-20T08:17:48.480Z,53.01
2019-05-20T08:20:20.663Z,53.00
2019-05-20T08:22:51.374Z,53.65
2019-05-20T08:25:22.531Z,53.51
2019-05-20T08:27:53.276Z,53.63
2019-05-20T08:30:37.109Z,55.12
2019-05-20T08:33:08.273Z,55.44
2019-05-20T08:35:39.131Z,54.89
2019-05-20T08:38:09.956Z,55.03
2019-05-20T08:40:42.404Z,55.00
2019-05-20T08:43:14.438Z,57.42
2019-05-20T08:45:45.185Z,57.58
2019-05-20T08:48:16.219Z,57.42
2019-05-20T08:50:47.307Z,57.21
2019-05-20T08:53:18.130Z,57.22
2019-05-20T08:55:48.913Z,57.47
2019-05-20T08:58:19.658Z,57.86
2019-05-20T09:00:50.748Z,58.94
2019-05-20T09:03:21.608Z,57.07
2019-05-20T09:05:52.554Z,56.81
2019-05-20T09:08:23.389Z,57.93
2019-05-20T09:10:54.059Z,58.14
2019-05-20T09:13:24.768Z,57.77
2019-05-20T09:15:56.406Z,57.51
2019-05-20T09:18:27.184Z,57.57
2019-05-20T09:20:58.176Z,57.65
2019-05-20T09:23:28.987Z,57.65
2019-05-20T09:26:00.295Z,56.99
2019-05-20T09:28:31.422Z,56.88
2019-05-20T09:31:02.715Z,57.08
2019-05-20T09:33:35.246Z,57.15
2019-05-20T09:36:06.447Z,56.64
2019-05-20T09:38:37.281Z,55.23
2019-05-20T09:41:08.476Z,55.84
2019-05-20T09:43:39.262Z,57.02
2019-05-20T09:46:10.340Z,55.39
2019-05-20T09:48:41.070Z,54.42
2019-05-20T09:51:11.796Z,55.60
2019-05-20T09:53:42.603Z,56.10
2019-05-20T09:56:13.347Z,55.90
2019-05-20T09:58:44.137Z,57.99
2019-05-20T10:01:15.932Z,58.21
2019-05-20T10:03:47.337Z,58.33
2019-05-20T10:06:18.390Z,58.31
2019-05-20T10:08:49.077Z,59.65
2019-05-20T10:11:19.829Z,60.21
2019-05-20T10:13:50.957Z,53.95
2019-05-20T10:16:21.866Z,53.86
2019-05-20T10:18:55.281Z,54.37
2019-05-20T10:21:24.981Z,55.11
2019-05-20T10:23:55.785Z,55.65
2019-05-20T10:26:26.465Z,56.10
2019-05-20T10:28:57.271Z,57.01
2019-05-20T10:31:27.982Z,56.67
2019-05-20T10:33:58.633Z,56.90
2019-05-20T10:36:29.693Z,57.75
2019-05-20T10:39:01.438Z,57.33
2019-05-20T10:41:34.118Z,57.17
2019-05-20T10:44:05.079Z,56.24
2019-05-20T10:46:36.193Z,57.16
2019-05-20T10:49:07.291Z,55.47
2019-05-20T10:51:38.317Z,56.69
2019-05-20T10:54:09.061Z,57.10
2019-05-20T10:56:39.787Z,57.06
2019-05-20T10:59:12.142Z,57.53
2019-05-20T11:01:42.861Z,57.58
2019-05-20T11:04:13.896Z,57.56
2019-05-20T11:06:44.708Z,57.71
2019-05-20T11:09:15.387Z,57.97
2019-05-20T11:11:46.546Z,58.02
2019-05-20T11:14:17.217Z,59.31
2019-05-20T11:16:47.928Z,59.99
2019-05-20T11:19:18.951Z,61.18
2019-05-20T11:21:49.992Z,61.60
2019-05-20T11:24:21.008Z,62.00
2019-05-20T11:26:51.987Z,63.91
2019-05-20T11:29:23.108Z,64.50
2019-05-20T11:31:54.751Z,65.26
2019-05-20T11:34:25.914Z,66.67
2019-05-20T11:36:56.871Z,66.61
2019-05-20T11:39:33.133Z,67.66
2019-05-20T11:41:59.949Z,68.05
2019-05-20T11:44:31.085Z,67.43
2019-05-20T11:47:01.785Z,65.83
2019-05-20T11:49:33.105Z,65.33
2019-05-20T11:52:04.261Z,66.45
2019-05-20T11:54:35.158Z,66.27
2019-05-20T11:57:06.185Z,65.77
2019-05-20T11:59:37.210Z,66.37
2019-05-20T12:02:08.013Z,65.74
2019-05-20T12:04:39.161Z,66.49
2019-05-20T12:07:10.977Z,67.10
2019-05-20T12:09:49.799Z,68.49
2019-05-20T12:12:14.182Z,69.41
2019-05-20T12:14:44.977Z,69.11
2019-05-20T12:17:16.038Z,69.75
2019-05-20T12:19:46.742Z,70.51
2019-05-20T12:22:17.565Z,69.97
2019-05-20T12:24:48.257Z,70.28
2019-05-20T12:27:18.927Z,70.03
2019-05-20T12:29:49.659Z,71.65
2019-05-20T12:32:20.340Z,71.58
2019-05-20T12:34:51.381Z,72.58
2019-05-20T12:37:22.056Z,72.12
2019-05-20T12:40:06.417Z,72.78
2019-05-20T12:42:25.159Z,74.05
2019-05-20T12:44:55.882Z,74.32
2019-05-20T12:47:27.037Z,73.92
2019-05-20T12:49:57.745Z,74.04
2019-05-20T12:52:28.442Z,73.44
2019-05-20T12:55:08.027Z,72.12
2019-05-20T12:57:31.988Z,73.32
2019-05-20T13:00:02.801Z,73.27
2019-05-20T13:02:34.973Z,74.03
2019-05-20T13:05:08.145Z,74.62
2019-05-20T13:07:39.035Z,75.71
2019-05-20T13:10:28.209Z,77.03
2019-05-20T13:12:44.255Z,76.94
2019-05-20T13:15:17.113Z,77.57
2019-05-20T13:17:47.868Z,76.52
2019-05-20T13:20:19.112Z,77.69
2019-05-20T13:22:50.029Z,78.16
2019-05-20T13:25:20.898Z,77.68
2019-05-20T13:27:51.612Z,77.98
2019-05-20T13:30:24.128Z,78.94
2019-05-20T13:32:54.855Z,78.88
2019-05-20T13:35:26.002Z,78.77
2019-05-20T13:37:57.157Z,78.50
2019-05-20T13:40:45.080Z,78.34
2019-05-20T13:43:00.329Z,77.94
2019-05-20T13:45:31.499Z,77.01
2019-05-20T13:48:02.192Z,78.15
2019-05-20T13:50:33.510Z,77.47
2019-05-20T13:53:04.256Z,77.04
2019-05-20T13:55:35.341Z,76.12
2019-05-20T13:58:06.101Z,76.32
2019-05-20T14:00:37.110Z,76.94
2019-05-20T14:03:07.858Z,77.25
2019-05-20T14:05:38.950Z,77.73
2019-05-20T14:08:09.785Z,79.38
2019-05-20T14:10:40.611Z,75.51
2019-05-20T14:13:11.973Z,78.30
2019-05-20T14:15:43.232Z,81.03
2019-05-20T14:18:14.390Z,85.14
2019-05-20T14:20:45.093Z,84.63
2019-05-20T14:23:16.243Z,87.40
2019-05-20T14:25:47.435Z,87.36
2019-05-20T14:28:18.123Z,89.00
2019-05-20T14:30:49.237Z,87.70
2019-05-20T14:33:20.268Z,89.02
2019-05-20T14:35:50.951Z,87.80
2019-05-20T14:38:21.995Z,89.16
2019-05-20T14:40:52.854Z,89.27
2019-05-20T14:43:23.590Z,89.27
2019-05-20T14:45:54.314Z,90.81
2019-05-20T14:48:25.054Z,90.09
2019-05-20T14:50:55.726Z,89.31
2019-05-20T14:53:26.533Z,90.45
2019-05-20T14:55:57.240Z,91.26
2019-05-20T14:58:27.900Z,91.71
2019-05-20T15:00:58.622Z,91.08
2019-05-20T15:03:29.356Z,89.77
2019-05-20T15:06:00.412Z,89.44
2019-05-20T15:08:34.322Z,90.69
2019-05-20T15:11:03.842Z,89.56
2019-05-20T15:13:35.128Z,88.67
2019-05-20T15:16:06.220Z,89.69
2019-05-20T15:18:37.249Z,89.24
2019-05-20T15:21:08.398Z,89.87
2019-05-20T15:23:39.539Z,90.10
2019-05-20T15:26:10.589Z,89.68
2019-05-20T15:28:41.251Z,90.96
2019-05-20T15:31:12.243Z,91.09
2019-05-20T15:33:42.974Z,89.27
2019-05-20T15:36:14.071Z,88.87
2019-05-20T15:38:44.845Z,89.18
2019-05-20T15:41:15.544Z,89.79
2019-05-20T15:43:46.282Z,90.30
2019-05-20T15:46:16.955Z,90.26
2019-05-20T15:48:47.653Z,90.14
2019-05-20T15:51:18.618Z,90.27
2019-05-20T15:53:50.720Z,89.30
2019-05-20T15:56:21.774Z,87.41
2019-05-20T15:58:53.697Z,86.77
2019-05-20T16:01:24.664Z,86.77
2019-05-20T16:03:55.344Z,86.72
2019-05-20T16:06:26.409Z,86.90
2019-05-20T16:08:57.558Z,85.94
2019-05-20T16:11:28.435Z,83.99
2019-05-20T16:13:59.630Z,84.54
2019-05-20T16:16:30.334Z,85.16
2019-05-20T16:19:00.987Z,84.96
2019-05-20T16:21:32.030Z,84.88
2019-05-20T16:24:02.768Z,84.24
2019-05-20T16:26:34.659Z,84.82
2019-05-20T16:29:05.612Z,85.37
2019-05-20T16:31:36.502Z,85.18
2019-05-20T16:34:07.568Z,84.47
2019-05-20T16:36:38.515Z,84.41
2019-05-20T16:39:09.278Z,83.91
2019-05-20T16:41:40.253Z,83.80
2019-05-20T16:44:11.399Z,84.14
2019-05-20T16:46:42.436Z,84.63
2019-05-20T16:49:13.824Z,84.60
2019-05-20T16:51:44.835Z,84.41
2019-05-20T16:54:15.880Z,84.31
2019-05-20T16:56:46.554Z,84.32
2019-05-20T16:59:17.617Z,84.41
2019-05-20T17:01:48.549Z,84.41
2019-05-20T17:04:19.702Z,84.10
2019-05-20T17:06:50.752Z,83.84
2019-05-20T17:09:22.041Z,84.13
2019-05-20T17:11:52.803Z,84.33
2019-05-20T17:14:23.474Z,84.55
2019-05-20T17:16:54.247Z,84.60
2019-05-20T17:19:25.229Z,84.67
2019-05-20T17:21:55.946Z,84.48
2019-05-20T17:24:26.708Z,84.06
2019-05-20T17:26:57.410Z,83.84
2019-05-20T17:29:28.551Z,83.61
2019-05-20T17:32:00.640Z,83.74
2019-05-20T17:34:32.701Z,84.05
2019-05-20T17:37:03.639Z,84.08
2019-05-20T17:39:34.368Z,83.57
2019-05-20T17:42:05.752Z,83.87
2019-05-20T17:44:38.044Z,83.36
2019-05-20T17:47:08.974Z,81.93
2019-05-20T17:49:39.736Z,80.76
2019-05-20T17:52:10.503Z,81.38
2019-05-20T17:54:44.023Z,81.73
2019-05-20T17:57:14.844Z,82.29
2019-05-20T17:59:45.879Z,82.07
2019-05-20T18:02:17.232Z,82.25
2019-05-20T18:04:48.270Z,82.29
2019-05-20T18:07:19.294Z,81.67
2019-05-20T18:09:52.287Z,81.07
2019-05-20T18:12:24.340Z,81.53
2019-05-20T18:14:56.987Z,80.99
2019-05-20T18:17:27.658Z,80.69
2019-05-20T18:19:58.725Z,80.94
2019-05-20T18:22:29.540Z,81.08
2019-05-20T18:25:00.472Z,81.56
2019-05-20T18:27:31.737Z,80.98
2019-05-20T18:30:03.720Z,81.07
2019-05-20T18:32:34.710Z,81.69
2019-05-20T18:35:07.554Z,81.58
2019-05-20T18:37:38.635Z,81.68
2019-05-20T18:40:14.400Z,82.65
2019-05-20T18:42:43.773Z,83.53
2019-05-20T18:45:15.626Z,83.72
2019-05-20T18:47:46.602Z,84.07
2019-05-20T18:50:17.791Z,84.05
2019-05-20T18:52:48.965Z,83.96
2019-05-20T18:55:20.024Z,84.08
2019-05-20T18:57:51.629Z,83.97
2019-05-20T19:00:24.445Z,84.10
2019-05-20T19:02:55.402Z,84.32
2019-05-20T19:05:26.334Z,84.57
2019-05-20T19:07:57.474Z,84.94
2019-05-20T19:10:29.463Z,85.13
2019-05-20T19:13:00.680Z,85.73
2019-05-20T19:15:31.712Z,86.06
2019-05-20T19:18:03.711Z,86.25
2019-05-20T19:20:34.457Z,86.44
2019-05-20T19:23:05.166Z,86.64
2019-05-20T19:25:38.057Z,86.83
2019-05-20T19:28:09.087Z,87.41
2019-05-20T19:30:39.905Z,87.67
2019-05-20T19:33:10.932Z,88.10
2019-05-20T19:35:42.069Z,88.17
2019-05-20T19:38:13.245Z,88.56
2019-05-20T19:40:45.615Z,88.54
2019-05-20T19:43:16.373Z,88.71
2019-05-20T19:45:47.476Z,88.55
2019-05-20T19:48:18.162Z,88.67
2019-05-20T19:50:49.238Z,88.72
2019-05-20T19:53:20.412Z,88.67
2019-05-20T19:55:51.422Z,88.51
2019-05-20T19:58:22.166Z,88.69
2019-05-20T20:00:56.565Z,88.72
2019-05-20T20:03:25.640Z,88.95
2019-05-20T20:05:56.629Z,88.49
2019-05-20T20:08:27.377Z,87.94
2019-05-20T20:10:58.423Z,87.86
2019-05-20T20:13:29.442Z,87.88
2019-05-20T20:16:00.138Z,87.79
2019-05-20T20:18:31.217Z,87.74
2019-05-20T20:21:02.009Z,87.77
2019-05-20T20:23:33.018Z,87.87
2019-05-20T20:26:03.753Z,88.09
2019-05-20T20:28:34.934Z,88.25
2019-05-20T20:31:05.827Z,88.23
2019-05-20T20:33:36.722Z,88.36
2019-05-20T20:36:08.600Z,88.73
2019-05-20T20:38:39.751Z,88.63
2019-05-20T20:41:10.787Z,88.56
2019-05-20T20:43:42.192Z,88.84
2019-05-20T20:46:14.036Z,88.67
2019-05-20T20:48:44.898Z,88.61
2019-05-20T20:53:43.114Z,88.92
2019-05-20T20:56:24.634Z,89.11
2019-05-20T20:58:46.411Z,89.27
2019-05-20T21:01:17.659Z,89.39
2019-05-20T21:03:48.732Z,89.47
2019-05-20T21:06:19.886Z,89.65
2019-05-20T21:08:50.719Z,90.00
2019-05-20T21:11:22.139Z,90.31
2019-05-20T21:13:53.229Z,90.28
2019-05-20T21:16:24.095Z,90.21
2019-05-20T21:18:54.890Z,90.29
2019-05-20T21:21:25.901Z,90.33
2019-05-20T21:23:56.611Z,90.26
2019-05-20T21:26:28.405Z,90.07
2019-05-20T21:28:59.198Z,90.38
2019-05-20T21:31:31.444Z,90.53
2019-05-20T21:34:02.523Z,90.58
2019-05-20T21:36:46.540Z,90.54
2019-05-20T21:39:07.470Z,90.50
2019-05-20T21:41:38.663Z,90.38
2019-05-20T21:44:09.464Z,90.43
2019-05-20T21:46:40.627Z,90.51
2019-05-20T21:49:12.323Z,90.90
2019-05-20T21:51:43.078Z,90.75
2019-05-20T21:54:14.140Z,90.80
2019-05-20T21:56:44.896Z,91.25
2019-05-20T21:59:15.691Z,91.25
2019-05-20T22:01:46.703Z,91.03
2019-05-20T22:04:17.784Z,90.94
2019-05-20T22:06:48.473Z,90.83
2019-05-20T22:09:19.170Z,91.15
2019-05-20T22:11:49.945Z,91.14
2019-05-20T22:14:20.902Z,91.26
2019-05-20T22:16:51.637Z,91.38
2019-05-20T22:19:22.832Z,91.33
2019-05-20T22:21:57.964Z,91.18
2019-05-20T22:24:29.028Z,90.99
2019-05-20T22:27:00.107Z,91.01
2019-05-20T22:29:30.822Z,91.21
2019-05-20T22:32:01.840Z,91.16
2019-05-20T22:34:32.894Z,91.22
2019-05-20T22:37:04.001Z,91.30
2019-05-20T22:39:35.027Z,91.07
2019-05-20T22:42:05.976Z,90.85
2019-05-20T22:44:37.052Z,90.91
2019-05-20T22:47:07.775Z,91.09
2019-05-20T22:49:38.864Z,91.05
2019-05-20T22:52:09.855Z,91.36
2019-05-20T22:54:40.937Z,91.39
2019-05-20T22:57:13.112Z,91.24
2019-05-20T22:59:44.120Z,91.07
2019-05-20T23:02:15.163Z,91.04
2019-05-20T23:04:46.233Z,91.15
2019-05-20T23:07:17.136Z,91.29
2019-05-20T23:09:48.264Z,91.53
2019-05-20T23:12:19.340Z,91.46
2019-05-20T23:14:50.036Z,91.46
2019-05-20T23:17:21.040Z,91.63
2019-05-20T23:19:51.785Z,91.74
2019-05-20T23:22:22.770Z,91.78
2019-05-20T23:24:53.518Z,91.72
2019-05-20T23:27:24.521Z,91.69
2019-05-20T23:29:55.211Z,91.71
2019-05-20T23:32:25.879Z,91.80
2019-05-20T23:34:56.843Z,91.98
2019-05-20T23:37:28.275Z,91.92
2019-05-20T23:39:59.017Z,91.78
2019-05-20T23:42:30.088Z,91.59
2019-05-20T23:45:01.122Z,91.49
2019-05-20T23:47:31.906Z,91.23
2019-05-20T23:50:02.670Z,91.15
2019-05-20T23:52:33.413Z,91.18
2019-05-20T23:55:05.833Z,91.42
2019-05-20T23:57:36.574Z,91.33
